sensor_id;sensor_type;location;lat;lon;timestamp;temperature;humidity
54642;DHT22;40536;53.194;5.728;2022-07-04T00:00:09;13.00;99.90
54642;DHT22;40536;53.194;5.728;2022-07-04T00:02:36;12.90;99.90
54642;DHT22;40536;53.194;5.728;2022-07-04T00:05:02;12.90;99.90
54642;DHT22;40536;53.194;5.728;2022-07-04T00:07:28;12.80;99.90
54642;DHT22;40536;53.194;5.728;2022-07-04T00:09:54;12.80;99.90
54642;DHT22;40536;53.194;5.728;2022-07-04T00:12:19;12.80;99.90
54642;DHT22;40536;53.194;5.728;2022-07-04T00:14:45;12.70;99.90
54642;DHT22;40536;53.194;5.728;2022-07-04T00:17:11;13.10;99.90
54642;DHT22;40536;53.194;5.728;2022-07-04T00:19:37;12.80;99.90
54642;DHT22;40536;53.194;5.728;2022-07-04T00:22:03;12.70;99.90
54642;DHT22;40536;53.194;5.728;2022-07-04T00:24:29;12.70;99.90
54642;DHT22;40536;53.194;5.728;2022-07-04T00:26:54;12.70;99.90
54642;DHT22;40536;53.194;5.728;2022-07-04T00:29:20;12.70;99.90
54642;DHT22;40536;53.194;5.728;2022-07-04T00:31:46;12.60;99.90
54642;DHT22;40536;53.194;5.728;2022-07-04T00:34:11;12.60;99.90
54642;DHT22;40536;53.194;5.728;2022-07-04T00:36:37;12.60;99.90
54642;DHT22;40536;53.194;5.728;2022-07-04T00:39:03;12.60;99.90
54642;DHT22;40536;53.194;5.728;2022-07-04T00:41:29;12.60;99.90
54642;DHT22;40536;53.194;5.728;2022-07-04T00:44:06;12.60;99.90
54642;DHT22;40536;53.194;5.728;2022-07-04T00:46:32;12.60;99.90
54642;DHT22;40536;53.194;5.728;2022-07-04T00:48:58;12.50;99.90
54642;DHT22;40536;53.194;5.728;2022-07-04T00:51:25;13.00;99.90
54642;DHT22;40536;53.194;5.728;2022-07-04T00:53:52;12.50;99.90
54642;DHT22;40536;53.194;5.728;2022-07-04T00:56:20;12.50;99.90
54642;DHT22;40536;53.194;5.728;2022-07-04T00:58:46;12.60;99.90
54642;DHT22;40536;53.194;5.728;2022-07-04T01:01:12;12.50;99.90
54642;DHT22;40536;53.194;5.728;2022-07-04T01:03:38;12.50;99.90
54642;DHT22;40536;53.194;5.728;2022-07-04T01:06:04;12.50;99.90
54642;DHT22;40536;53.194;5.728;2022-07-04T01:08:37;12.40;99.90
54642;DHT22;40536;53.194;5.728;2022-07-04T01:11:05;12.40;99.90
54642;DHT22;40536;53.194;5.728;2022-07-04T01:13:30;12.50;99.90
54642;DHT22;40536;53.194;5.728;2022-07-04T01:15:56;12.40;99.90
54642;DHT22;40536;53.194;5.728;2022-07-04T01:18:22;12.40;99.90
54642;DHT22;40536;53.194;5.728;2022-07-04T01:20:48;12.40;99.90
54642;DHT22;40536;53.194;5.728;2022-07-04T01:23:13;12.40;99.90
54642;DHT22;40536;53.194;5.728;2022-07-04T01:25:39;12.50;99.90
54642;DHT22;40536;53.194;5.728;2022-07-04T01:28:05;12.40;99.90
54642;DHT22;40536;53.194;5.728;2022-07-04T01:30:32;12.40;99.90
54642;DHT22;40536;53.194;5.728;2022-07-04T01:32:58;12.40;99.90
54642;DHT22;40536;53.194;5.728;2022-07-04T01:35:24;12.30;99.90
54642;DHT22;40536;53.194;5.728;2022-07-04T01:37:50;12.30;99.90
54642;DHT22;40536;53.194;5.728;2022-07-04T01:40:16;12.30;99.90
54642;DHT22;40536;53.194;5.728;2022-07-04T01:42:42;12.30;99.90
54642;DHT22;40536;53.194;5.728;2022-07-04T01:45:09;12.30;99.90
54642;DHT22;40536;53.194;5.728;2022-07-04T01:47:35;12.30;99.90
54642;DHT22;40536;53.194;5.728;2022-07-04T01:50:03;12.40;99.90
54642;DHT22;40536;53.194;5.728;2022-07-04T01:52:29;12.40;99.90
54642;DHT22;40536;53.194;5.728;2022-07-04T01:54:54;12.40;99.90
54642;DHT22;40536;53.194;5.728;2022-07-04T01:57:20;12.40;99.90
54642;DHT22;40536;53.194;5.728;2022-07-04T01:59:45;12.40;99.90
54642;DHT22;40536;53.194;5.728;2022-07-04T02:02:30;12.40;99.90
54642;DHT22;40536;53.194;5.728;2022-07-04T02:04:55;12.40;99.90
54642;DHT22;40536;53.194;5.728;2022-07-04T02:07:21;12.40;99.90
54642;DHT22;40536;53.194;5.728;2022-07-04T02:09:47;12.50;99.90
54642;DHT22;40536;53.194;5.728;2022-07-04T02:12:13;12.50;99.90
54642;DHT22;40536;53.194;5.728;2022-07-04T02:14:57;12.50;99.90
54642;DHT22;40536;53.194;5.728;2022-07-04T02:17:22;12.50;99.90
54642;DHT22;40536;53.194;5.728;2022-07-04T02:19:48;12.50;99.90
54642;DHT22;40536;53.194;5.728;2022-07-04T02:22:14;12.50;99.90
54642;DHT22;40536;53.194;5.728;2022-07-04T02:24:41;12.50;99.90
54642;DHT22;40536;53.194;5.728;2022-07-04T02:27:07;12.50;99.90
54642;DHT22;40536;53.194;5.728;2022-07-04T02:29:32;12.50;99.90
54642;DHT22;40536;53.194;5.728;2022-07-04T02:31:58;12.50;99.90
54642;DHT22;40536;53.194;5.728;2022-07-04T02:34:24;12.50;99.90
54642;DHT22;40536;53.194;5.728;2022-07-04T02:36:50;12.60;99.90
54642;DHT22;40536;53.194;5.728;2022-07-04T02:39:15;12.60;99.90
54642;DHT22;40536;53.194;5.728;2022-07-04T02:41:41;12.50;99.90
54642;DHT22;40536;53.194;5.728;2022-07-04T02:44:07;12.50;99.90
54642;DHT22;40536;53.194;5.728;2022-07-04T02:46:33;12.50;99.90
54642;DHT22;40536;53.194;5.728;2022-07-04T02:48:59;12.50;99.90
54642;DHT22;40536;53.194;5.728;2022-07-04T02:51:25;12.50;99.90
54642;DHT22;40536;53.194;5.728;2022-07-04T02:53:51;12.60;99.90
54642;DHT22;40536;53.194;5.728;2022-07-04T02:56:17;12.60;99.90
54642;DHT22;40536;53.194;5.728;2022-07-04T02:58:42;12.60;99.90
54642;DHT22;40536;53.194;5.728;2022-07-04T03:01:08;12.60;99.90
54642;DHT22;40536;53.194;5.728;2022-07-04T03:03:34;12.60;99.90
54642;DHT22;40536;53.194;5.728;2022-07-04T03:06:00;12.60;99.90
54642;DHT22;40536;53.194;5.728;2022-07-04T03:08:26;12.70;99.90
54642;DHT22;40536;53.194;5.728;2022-07-04T03:10:52;12.60;99.90
54642;DHT22;40536;53.194;5.728;2022-07-04T03:13:18;12.70;99.90
54642;DHT22;40536;53.194;5.728;2022-07-04T03:15:44;12.70;99.90
54642;DHT22;40536;53.194;5.728;2022-07-04T03:18:10;12.80;99.90
54642;DHT22;40536;53.194;5.728;2022-07-04T03:20:36;12.70;99.90
54642;DHT22;40536;53.194;5.728;2022-07-04T03:23:02;13.00;99.90
54642;DHT22;40536;53.194;5.728;2022-07-04T03:25:28;12.80;99.90
54642;DHT22;40536;53.194;5.728;2022-07-04T03:27:54;12.80;99.90
54642;DHT22;40536;53.194;5.728;2022-07-04T03:30:20;12.70;99.90
54642;DHT22;40536;53.194;5.728;2022-07-04T03:32:46;12.80;99.90
54642;DHT22;40536;53.194;5.728;2022-07-04T03:35:11;12.80;99.90
54642;DHT22;40536;53.194;5.728;2022-07-04T03:37:37;12.80;99.90
54642;DHT22;40536;53.194;5.728;2022-07-04T03:40:03;12.80;99.90
54642;DHT22;40536;53.194;5.728;2022-07-04T03:42:29;12.80;99.90
54642;DHT22;40536;53.194;5.728;2022-07-04T03:44:54;12.80;99.90
54642;DHT22;40536;53.194;5.728;2022-07-04T03:47:20;12.80;99.90
54642;DHT22;40536;53.194;5.728;2022-07-04T03:49:46;12.80;99.90
54642;DHT22;40536;53.194;5.728;2022-07-04T03:52:11;12.80;99.90
54642;DHT22;40536;53.194;5.728;2022-07-04T03:54:37;12.80;99.90
54642;DHT22;40536;53.194;5.728;2022-07-04T03:57:03;12.90;99.90
54642;DHT22;40536;53.194;5.728;2022-07-04T03:59:28;12.90;99.90
54642;DHT22;40536;53.194;5.728;2022-07-04T04:01:54;13.00;99.90
54642;DHT22;40536;53.194;5.728;2022-07-04T04:04:20;13.00;99.90
54642;DHT22;40536;53.194;5.728;2022-07-04T04:07:04;13.10;99.90
54642;DHT22;40536;53.194;5.728;2022-07-04T04:09:30;13.20;99.90
54642;DHT22;40536;53.194;5.728;2022-07-04T04:11:55;13.30;99.90
54642;DHT22;40536;53.194;5.728;2022-07-04T04:14:21;13.30;99.90
54642;DHT22;40536;53.194;5.728;2022-07-04T04:16:46;13.40;99.90
54642;DHT22;40536;53.194;5.728;2022-07-04T04:19:12;13.50;99.90
54642;DHT22;40536;53.194;5.728;2022-07-04T04:21:38;13.50;99.90
54642;DHT22;40536;53.194;5.728;2022-07-04T04:24:04;13.50;99.90
54642;DHT22;40536;53.194;5.728;2022-07-04T04:26:30;13.50;99.90
54642;DHT22;40536;53.194;5.728;2022-07-04T04:28:56;13.60;99.90
54642;DHT22;40536;53.194;5.728;2022-07-04T04:31:21;14.00;99.90
54642;DHT22;40536;53.194;5.728;2022-07-04T04:33:47;13.70;99.90
54642;DHT22;40536;53.194;5.728;2022-07-04T04:36:13;13.80;99.90
54642;DHT22;40536;53.194;5.728;2022-07-04T04:38:39;13.90;99.90
54642;DHT22;40536;53.194;5.728;2022-07-04T04:41:04;13.90;99.90
54642;DHT22;40536;53.194;5.728;2022-07-04T04:43:30;14.00;99.90
54642;DHT22;40536;53.194;5.728;2022-07-04T04:45:56;14.20;99.90
54642;DHT22;40536;53.194;5.728;2022-07-04T04:48:21;14.40;99.90
54642;DHT22;40536;53.194;5.728;2022-07-04T04:50:47;14.60;99.90
54642;DHT22;40536;53.194;5.728;2022-07-04T04:53:13;14.70;99.90
54642;DHT22;40536;53.194;5.728;2022-07-04T04:55:39;15.00;99.90
54642;DHT22;40536;53.194;5.728;2022-07-04T04:58:04;15.20;99.90
54642;DHT22;40536;53.194;5.728;2022-07-04T05:00:31;15.50;99.90
54642;DHT22;40536;53.194;5.728;2022-07-04T05:02:57;15.80;99.90
54642;DHT22;40536;53.194;5.728;2022-07-04T05:05:22;16.10;99.90
54642;DHT22;40536;53.194;5.728;2022-07-04T05:07:48;16.40;99.90
54642;DHT22;40536;53.194;5.728;2022-07-04T05:10:14;16.60;99.90
54642;DHT22;40536;53.194;5.728;2022-07-04T05:12:42;16.90;99.90
54642;DHT22;40536;53.194;5.728;2022-07-04T05:15:08;17.20;99.90
54642;DHT22;40536;53.194;5.728;2022-07-04T05:17:34;17.50;99.90
54642;DHT22;40536;53.194;5.728;2022-07-04T05:20:00;17.70;99.90
54642;DHT22;40536;53.194;5.728;2022-07-04T05:22:26;17.90;99.90
54642;DHT22;40536;53.194;5.728;2022-07-04T05:24:52;18.00;99.90
54642;DHT22;40536;53.194;5.728;2022-07-04T05:27:17;17.90;99.90
54642;DHT22;40536;53.194;5.728;2022-07-04T05:29:43;18.00;99.90
54642;DHT22;40536;53.194;5.728;2022-07-04T05:32:09;18.30;99.90
54642;DHT22;40536;53.194;5.728;2022-07-04T05:34:34;18.70;99.90
54642;DHT22;40536;53.194;5.728;2022-07-04T05:37:01;19.00;99.90
54642;DHT22;40536;53.194;5.728;2022-07-04T05:39:28;19.20;99.90
54642;DHT22;40536;53.194;5.728;2022-07-04T05:41:54;19.60;99.90
54642;DHT22;40536;53.194;5.728;2022-07-04T05:44:20;19.70;99.90
54642;DHT22;40536;53.194;5.728;2022-07-04T05:46:45;19.80;99.90
54642;DHT22;40536;53.194;5.728;2022-07-04T05:49:11;20.10;99.90
54642;DHT22;40536;53.194;5.728;2022-07-04T05:51:36;20.50;99.90
54642;DHT22;40536;53.194;5.728;2022-07-04T05:54:02;20.70;99.90
54642;DHT22;40536;53.194;5.728;2022-07-04T05:56:28;20.90;99.90
54642;DHT22;40536;53.194;5.728;2022-07-04T05:58:53;20.90;99.90
54642;DHT22;40536;53.194;5.728;2022-07-04T06:01:19;20.70;99.90
54642;DHT22;40536;53.194;5.728;2022-07-04T06:03:45;20.70;99.90
54642;DHT22;40536;53.194;5.728;2022-07-04T06:06:11;20.80;99.90
54642;DHT22;40536;53.194;5.728;2022-07-04T06:08:37;21.30;99.90
54642;DHT22;40536;53.194;5.728;2022-07-04T06:11:03;21.40;99.90
54642;DHT22;40536;53.194;5.728;2022-07-04T06:13:29;21.40;99.90
54642;DHT22;40536;53.194;5.728;2022-07-04T06:15:55;21.10;99.90
54642;DHT22;40536;53.194;5.728;2022-07-04T06:18:21;20.70;99.90
54642;DHT22;40536;53.194;5.728;2022-07-04T06:20:46;20.50;99.90
54642;DHT22;40536;53.194;5.728;2022-07-04T06:23:12;20.50;99.90
54642;DHT22;40536;53.194;5.728;2022-07-04T06:25:38;20.80;99.90
54642;DHT22;40536;53.194;5.728;2022-07-04T06:28:04;20.80;99.90
54642;DHT22;40536;53.194;5.728;2022-07-04T06:30:30;21.00;99.90
54642;DHT22;40536;53.194;5.728;2022-07-04T06:32:57;21.10;99.90
54642;DHT22;40536;53.194;5.728;2022-07-04T06:35:27;21.30;99.90
54642;DHT22;40536;53.194;5.728;2022-07-04T06:38:14;21.70;99.90
54642;DHT22;40536;53.194;5.728;2022-07-04T06:40:40;22.20;99.90
54642;DHT22;40536;53.194;5.728;2022-07-04T06:43:06;22.70;99.90
54642;DHT22;40536;53.194;5.728;2022-07-04T06:45:32;22.90;99.90
54642;DHT22;40536;53.194;5.728;2022-07-04T06:48:03;22.80;99.90
54642;DHT22;40536;53.194;5.728;2022-07-04T06:50:29;22.50;99.90
54642;DHT22;40536;53.194;5.728;2022-07-04T06:52:58;22.30;99.90
54642;DHT22;40536;53.194;5.728;2022-07-04T06:55:24;22.00;99.90
54642;DHT22;40536;53.194;5.728;2022-07-04T06:57:50;21.80;99.90
54642;DHT22;40536;53.194;5.728;2022-07-04T07:00:16;21.50;99.90
54642;DHT22;40536;53.194;5.728;2022-07-04T07:02:42;21.50;99.90
54642;DHT22;40536;53.194;5.728;2022-07-04T07:05:07;21.50;99.90
54642;DHT22;40536;53.194;5.728;2022-07-04T07:07:33;21.60;99.90
54642;DHT22;40536;53.194;5.728;2022-07-04T07:09:59;21.50;99.90
54642;DHT22;40536;53.194;5.728;2022-07-04T07:12:26;21.40;99.90
54642;DHT22;40536;53.194;5.728;2022-07-04T07:14:52;21.20;99.90
54642;DHT22;40536;53.194;5.728;2022-07-04T07:17:18;20.90;99.90
54642;DHT22;40536;53.194;5.728;2022-07-04T07:19:44;20.90;99.90
54642;DHT22;40536;53.194;5.728;2022-07-04T07:22:11;21.50;99.90
54642;DHT22;40536;53.194;5.728;2022-07-04T07:24:37;22.40;99.90
54642;DHT22;40536;53.194;5.728;2022-07-04T07:27:03;23.20;99.90
54642;DHT22;40536;53.194;5.728;2022-07-04T07:29:29;23.80;99.90
54642;DHT22;40536;53.194;5.728;2022-07-04T07:31:55;24.10;99.90
54642;DHT22;40536;53.194;5.728;2022-07-04T07:34:20;24.40;99.90
54642;DHT22;40536;53.194;5.728;2022-07-04T07:36:46;24.30;99.90
54642;DHT22;40536;53.194;5.728;2022-07-04T07:39:12;24.70;99.90
54642;DHT22;40536;53.194;5.728;2022-07-04T07:41:37;24.70;99.90
54642;DHT22;40536;53.194;5.728;2022-07-04T07:44:03;24.40;99.90
54642;DHT22;40536;53.194;5.728;2022-07-04T07:46:29;24.40;99.90
54642;DHT22;40536;53.194;5.728;2022-07-04T07:48:55;24.70;99.90
54642;DHT22;40536;53.194;5.728;2022-07-04T07:51:20;24.90;99.90
54642;DHT22;40536;53.194;5.728;2022-07-04T07:53:46;25.10;99.90
54642;DHT22;40536;53.194;5.728;2022-07-04T07:56:12;25.10;99.90
54642;DHT22;40536;53.194;5.728;2022-07-04T07:58:38;25.50;99.90
54642;DHT22;40536;53.194;5.728;2022-07-04T08:01:04;25.90;99.90
54642;DHT22;40536;53.194;5.728;2022-07-04T08:03:29;25.40;99.90
54642;DHT22;40536;53.194;5.728;2022-07-04T08:06:15;25.30;99.90
54642;DHT22;40536;53.194;5.728;2022-07-04T08:08:41;25.30;99.90
54642;DHT22;40536;53.194;5.728;2022-07-04T08:11:07;25.50;99.90
54642;DHT22;40536;53.194;5.728;2022-07-04T08:13:33;25.00;99.90
54642;DHT22;40536;53.194;5.728;2022-07-04T08:15:59;24.70;99.90
54642;DHT22;40536;53.194;5.728;2022-07-04T08:18:25;25.20;99.90
54642;DHT22;40536;53.194;5.728;2022-07-04T08:20:50;25.90;99.90
54642;DHT22;40536;53.194;5.728;2022-07-04T08:23:17;26.80;99.90
54642;DHT22;40536;53.194;5.728;2022-07-04T08:25:42;26.20;99.90
54642;DHT22;40536;53.194;5.728;2022-07-04T08:28:08;25.30;99.90
54642;DHT22;40536;53.194;5.728;2022-07-04T08:30:34;23.90;99.90
54642;DHT22;40536;53.194;5.728;2022-07-04T08:33:00;23.20;99.90
54642;DHT22;40536;53.194;5.728;2022-07-04T08:35:26;22.60;99.90
54642;DHT22;40536;53.194;5.728;2022-07-04T08:37:52;22.70;99.90
54642;DHT22;40536;53.194;5.728;2022-07-04T08:40:25;22.40;99.90
54642;DHT22;40536;53.194;5.728;2022-07-04T08:42:51;22.10;99.90
54642;DHT22;40536;53.194;5.728;2022-07-04T08:45:26;21.80;99.90
54642;DHT22;40536;53.194;5.728;2022-07-04T08:47:55;22.10;99.90
54642;DHT22;40536;53.194;5.728;2022-07-04T08:50:44;23.30;99.90
54642;DHT22;40536;53.194;5.728;2022-07-04T08:53:15;23.90;99.90
54642;DHT22;40536;53.194;5.728;2022-07-04T08:55:41;23.90;99.90
54642;DHT22;40536;53.194;5.728;2022-07-04T08:58:27;24.70;99.90
54642;DHT22;40536;53.194;5.728;2022-07-04T09:01:07;25.70;99.90
54642;DHT22;40536;53.194;5.728;2022-07-04T09:03:34;26.60;99.90
54642;DHT22;40536;53.194;5.728;2022-07-04T09:05:59;27.20;99.90
54642;DHT22;40536;53.194;5.728;2022-07-04T09:08:26;27.10;99.90
54642;DHT22;40536;53.194;5.728;2022-07-04T09:10:53;27.90;99.90
54642;DHT22;40536;53.194;5.728;2022-07-04T09:13:19;28.20;99.90
54642;DHT22;40536;53.194;5.728;2022-07-04T09:15:48;27.50;98.30
54642;DHT22;40536;53.194;5.728;2022-07-04T09:20:53;26.00;99.90
54642;DHT22;40536;53.194;5.728;2022-07-04T09:23:22;24.70;99.90
54642;DHT22;40536;53.194;5.728;2022-07-04T09:25:49;24.20;99.90
54642;DHT22;40536;53.194;5.728;2022-07-04T09:28:28;23.90;99.90
54642;DHT22;40536;53.194;5.728;2022-07-04T09:30:53;23.70;99.90
54642;DHT22;40536;53.194;5.728;2022-07-04T09:33:19;24.20;99.90
54642;DHT22;40536;53.194;5.728;2022-07-04T09:35:46;25.20;99.90
54642;DHT22;40536;53.194;5.728;2022-07-04T09:38:21;26.10;99.90
54642;DHT22;40536;53.194;5.728;2022-07-04T09:40:52;27.20;99.90
54642;DHT22;40536;53.194;5.728;2022-07-04T09:43:36;27.30;99.90
54642;DHT22;40536;53.194;5.728;2022-07-04T09:46:02;27.20;99.10
54642;DHT22;40536;53.194;5.728;2022-07-04T09:48:48;27.00;99.50
54642;DHT22;40536;53.194;5.728;2022-07-04T09:51:14;27.80;98.30
54642;DHT22;40536;53.194;5.728;2022-07-04T09:53:39;28.00;98.60
54642;DHT22;40536;53.194;5.728;2022-07-04T09:56:05;28.10;98.40
54642;DHT22;40536;53.194;5.728;2022-07-04T09:58:31;28.30;98.40
54642;DHT22;40536;53.194;5.728;2022-07-04T10:00:59;28.10;98.50
54642;DHT22;40536;53.194;5.728;2022-07-04T10:03:27;28.60;97.90
54642;DHT22;40536;53.194;5.728;2022-07-04T10:06:08;28.80;97.90
54642;DHT22;40536;53.194;5.728;2022-07-04T10:08:36;27.80;96.60
54642;DHT22;40536;53.194;5.728;2022-07-04T10:11:03;26.50;97.80
54642;DHT22;40536;53.194;5.728;2022-07-04T10:13:30;25.90;99.00
54642;DHT22;40536;53.194;5.728;2022-07-04T10:15:56;25.50;97.90
54642;DHT22;40536;53.194;5.728;2022-07-04T10:18:23;24.70;99.40
54642;DHT22;40536;53.194;5.728;2022-07-04T10:20:50;25.10;99.90
54642;DHT22;40536;53.194;5.728;2022-07-04T10:23:19;25.90;99.90
54642;DHT22;40536;53.194;5.728;2022-07-04T10:25:48;26.50;99.60
54642;DHT22;40536;53.194;5.728;2022-07-04T10:28:15;26.60;98.30
54642;DHT22;40536;53.194;5.728;2022-07-04T10:30:42;26.00;99.20
54642;DHT22;40536;53.194;5.728;2022-07-04T10:33:09;26.40;99.50
54642;DHT22;40536;53.194;5.728;2022-07-04T10:35:58;26.50;99.50
54642;DHT22;40536;53.194;5.728;2022-07-04T10:38:37;26.80;99.10
54642;DHT22;40536;53.194;5.728;2022-07-04T10:41:11;26.80;99.40
54642;DHT22;40536;53.194;5.728;2022-07-04T10:43:46;26.10;99.00
54642;DHT22;40536;53.194;5.728;2022-07-04T10:48:59;25.80;99.90
54642;DHT22;40536;53.194;5.728;2022-07-04T10:51:50;26.20;99.90
54642;DHT22;40536;53.194;5.728;2022-07-04T10:59:23;24.70;99.90
54642;DHT22;40536;53.194;5.728;2022-07-04T11:04:52;25.20;99.60
54642;DHT22;40536;53.194;5.728;2022-07-04T11:07:20;25.40;99.90
54642;DHT22;40536;53.194;5.728;2022-07-04T11:18:07;26.20;98.30
54642;DHT22;40536;53.194;5.728;2022-07-04T11:20:35;26.70;98.10
54642;DHT22;40536;53.194;5.728;2022-07-04T11:23:17;26.70;97.80
54642;DHT22;40536;53.194;5.728;2022-07-04T11:25:46;27.20;97.60
54642;DHT22;40536;53.194;5.728;2022-07-04T11:28:22;27.20;96.30
54642;DHT22;40536;53.194;5.728;2022-07-04T11:30:50;27.40;95.50
54642;DHT22;40536;53.194;5.728;2022-07-04T11:33:24;27.20;97.10
54642;DHT22;40536;53.194;5.728;2022-07-04T11:36:13;27.80;97.30
54642;DHT22;40536;53.194;5.728;2022-07-04T11:38:53;27.60;97.30
54642;DHT22;40536;53.194;5.728;2022-07-04T11:41:20;27.20;97.20
54642;DHT22;40536;53.194;5.728;2022-07-04T11:44:07;26.70;98.20
54642;DHT22;40536;53.194;5.728;2022-07-04T11:49:30;26.60;97.10
54642;DHT22;40536;53.194;5.728;2022-07-04T11:51:55;25.60;98.00
54642;DHT22;40536;53.194;5.728;2022-07-04T11:54:21;25.00;99.30
54642;DHT22;40536;53.194;5.728;2022-07-04T11:56:47;24.40;99.90
54642;DHT22;40536;53.194;5.728;2022-07-04T11:59:14;24.00;99.90
54642;DHT22;40536;53.194;5.728;2022-07-04T12:01:41;23.70;99.90
54642;DHT22;40536;53.194;5.728;2022-07-04T12:04:17;23.30;99.90
54642;DHT22;40536;53.194;5.728;2022-07-04T12:06:46;23.10;99.90
54642;DHT22;40536;53.194;5.728;2022-07-04T12:09:12;22.90;99.90
54642;DHT22;40536;53.194;5.728;2022-07-04T12:11:58;23.60;99.90
54642;DHT22;40536;53.194;5.728;2022-07-04T12:14:25;24.60;99.90
54642;DHT22;40536;53.194;5.728;2022-07-04T12:17:17;25.30;99.90
54642;DHT22;40536;53.194;5.728;2022-07-04T12:19:57;25.70;99.90
54642;DHT22;40536;53.194;5.728;2022-07-04T12:22:26;25.60;99.00
54642;DHT22;40536;53.194;5.728;2022-07-04T12:24:51;24.70;99.30
54642;DHT22;40536;53.194;5.728;2022-07-04T12:27:18;24.20;99.90
54642;DHT22;40536;53.194;5.728;2022-07-04T12:29:51;24.40;99.90
54642;DHT22;40536;53.194;5.728;2022-07-04T12:32:17;23.70;99.90
54642;DHT22;40536;53.194;5.728;2022-07-04T12:34:44;23.20;99.90
54642;DHT22;40536;53.194;5.728;2022-07-04T12:37:11;23.10;99.90
54642;DHT22;40536;53.194;5.728;2022-07-04T12:39:38;23.30;99.90
54642;DHT22;40536;53.194;5.728;2022-07-04T12:42:15;23.60;99.90
54642;DHT22;40536;53.194;5.728;2022-07-04T12:44:43;23.50;99.90
54642;DHT22;40536;53.194;5.728;2022-07-04T12:47:10;23.70;99.90
54642;DHT22;40536;53.194;5.728;2022-07-04T12:49:37;23.90;99.90
54642;DHT22;40536;53.194;5.728;2022-07-04T12:52:07;23.90;99.90
54642;DHT22;40536;53.194;5.728;2022-07-04T12:54:34;24.10;99.90
54642;DHT22;40536;53.194;5.728;2022-07-04T12:57:15;24.20;99.90
54642;DHT22;40536;53.194;5.728;2022-07-04T12:59:43;23.70;99.70
54642;DHT22;40536;53.194;5.728;2022-07-04T13:02:10;23.60;99.90
54642;DHT22;40536;53.194;5.728;2022-07-04T13:04:37;23.90;99.90
54642;DHT22;40536;53.194;5.728;2022-07-04T13:07:16;23.70;99.90
54642;DHT22;40536;53.194;5.728;2022-07-04T13:09:44;23.80;99.90
54642;DHT22;40536;53.194;5.728;2022-07-04T13:12:11;24.00;99.90
54642;DHT22;40536;53.194;5.728;2022-07-04T13:14:56;24.00;99.90
54642;DHT22;40536;53.194;5.728;2022-07-04T13:17:23;23.90;99.90
54642;DHT22;40536;53.194;5.728;2022-07-04T13:19:49;23.70;99.90
54642;DHT22;40536;53.194;5.728;2022-07-04T13:22:18;23.70;99.90
54642;DHT22;40536;53.194;5.728;2022-07-04T13:24:44;23.60;99.90
54642;DHT22;40536;53.194;5.728;2022-07-04T13:27:10;23.20;99.90
54642;DHT22;40536;53.194;5.728;2022-07-04T13:29:36;23.10;99.90
54642;DHT22;40536;53.194;5.728;2022-07-04T13:32:04;22.70;99.90
54642;DHT22;40536;53.194;5.728;2022-07-04T13:34:30;22.80;99.90
54642;DHT22;40536;53.194;5.728;2022-07-04T13:36:56;23.00;99.90
54642;DHT22;40536;53.194;5.728;2022-07-04T13:39:25;23.20;99.90
54642;DHT22;40536;53.194;5.728;2022-07-04T13:41:50;22.90;99.90
54642;DHT22;40536;53.194;5.728;2022-07-04T13:44:16;22.80;99.90
54642;DHT22;40536;53.194;5.728;2022-07-04T13:46:42;22.70;99.90
54642;DHT22;40536;53.194;5.728;2022-07-04T13:49:09;22.70;99.90
54642;DHT22;40536;53.194;5.728;2022-07-04T13:51:34;22.80;99.90
54642;DHT22;40536;53.194;5.728;2022-07-04T13:54:02;22.90;99.90
54642;DHT22;40536;53.194;5.728;2022-07-04T13:56:28;22.90;99.90
54642;DHT22;40536;53.194;5.728;2022-07-04T13:58:53;22.60;99.90
54642;DHT22;40536;53.194;5.728;2022-07-04T14:01:19;22.50;99.90
54642;DHT22;40536;53.194;5.728;2022-07-04T14:03:49;22.30;99.90
54642;DHT22;40536;53.194;5.728;2022-07-04T14:06:16;22.30;99.90
54642;DHT22;40536;53.194;5.728;2022-07-04T14:08:42;22.50;99.90
54642;DHT22;40536;53.194;5.728;2022-07-04T14:11:08;22.30;99.90
54642;DHT22;40536;53.194;5.728;2022-07-04T14:13:33;22.00;99.90
54642;DHT22;40536;53.194;5.728;2022-07-04T14:15:59;22.10;99.90
54642;DHT22;40536;53.194;5.728;2022-07-04T14:18:25;22.40;99.90
54642;DHT22;40536;53.194;5.728;2022-07-04T14:20:51;22.60;99.90
54642;DHT22;40536;53.194;5.728;2022-07-04T14:23:17;22.40;99.90
54642;DHT22;40536;53.194;5.728;2022-07-04T14:26:03;22.30;99.90
54642;DHT22;40536;53.194;5.728;2022-07-04T14:28:30;22.50;99.90
54642;DHT22;40536;53.194;5.728;2022-07-04T14:30:57;22.60;99.90
54642;DHT22;40536;53.194;5.728;2022-07-04T14:33:22;22.70;99.90
54642;DHT22;40536;53.194;5.728;2022-07-04T14:35:48;22.40;99.90
54642;DHT22;40536;53.194;5.728;2022-07-04T14:38:14;22.60;99.90
54642;DHT22;40536;53.194;5.728;2022-07-04T14:40:39;22.80;99.90
54642;DHT22;40536;53.194;5.728;2022-07-04T14:43:08;23.00;99.90
54642;DHT22;40536;53.194;5.728;2022-07-04T14:45:34;23.20;99.90
54642;DHT22;40536;53.194;5.728;2022-07-04T14:47:59;23.20;99.90
54642;DHT22;40536;53.194;5.728;2022-07-04T14:50:25;23.00;99.90
54642;DHT22;40536;53.194;5.728;2022-07-04T14:52:51;23.00;99.90
54642;DHT22;40536;53.194;5.728;2022-07-04T14:55:16;23.00;99.90
54642;DHT22;40536;53.194;5.728;2022-07-04T14:57:42;22.90;99.90
54642;DHT22;40536;53.194;5.728;2022-07-04T15:00:08;22.80;99.90
54642;DHT22;40536;53.194;5.728;2022-07-04T15:02:34;22.40;99.90
54642;DHT22;40536;53.194;5.728;2022-07-04T15:05:00;22.20;99.90
54642;DHT22;40536;53.194;5.728;2022-07-04T15:07:25;21.90;99.90
54642;DHT22;40536;53.194;5.728;2022-07-04T15:09:51;21.50;99.90
54642;DHT22;40536;53.194;5.728;2022-07-04T15:12:17;21.20;99.90
54642;DHT22;40536;53.194;5.728;2022-07-04T15:14:42;21.10;99.90
54642;DHT22;40536;53.194;5.728;2022-07-04T15:17:08;21.00;99.90
54642;DHT22;40536;53.194;5.728;2022-07-04T15:19:34;21.00;99.90
54642;DHT22;40536;53.194;5.728;2022-07-04T15:22:19;21.20;99.90
54642;DHT22;40536;53.194;5.728;2022-07-04T15:25:04;21.10;99.90
54642;DHT22;40536;53.194;5.728;2022-07-04T15:27:29;21.20;99.90
54642;DHT22;40536;53.194;5.728;2022-07-04T15:29:55;21.20;99.90
54642;DHT22;40536;53.194;5.728;2022-07-04T15:32:21;21.10;99.90
54642;DHT22;40536;53.194;5.728;2022-07-04T15:34:46;21.10;99.90
54642;DHT22;40536;53.194;5.728;2022-07-04T15:37:12;21.20;99.90
54642;DHT22;40536;53.194;5.728;2022-07-04T15:39:37;21.40;99.90
54642;DHT22;40536;53.194;5.728;2022-07-04T15:42:03;21.10;99.90
54642;DHT22;40536;53.194;5.728;2022-07-04T15:44:29;21.20;99.90
54642;DHT22;40536;53.194;5.728;2022-07-04T15:46:54;21.30;99.90
54642;DHT22;40536;53.194;5.728;2022-07-04T15:49:38;21.30;99.90
54642;DHT22;40536;53.194;5.728;2022-07-04T15:52:05;21.20;99.90
54642;DHT22;40536;53.194;5.728;2022-07-04T15:54:31;21.30;99.90
54642;DHT22;40536;53.194;5.728;2022-07-04T15:56:57;21.20;99.90